createdAt,value
2019-05-02T00:02:30.078Z,18.97
2019-05-02T00:05:16.594Z,18.53
2019-05-02T00:08:02.314Z,17.40
2019-05-02T00:10:48.755Z,19.80
2019-05-02T00:13:34.611Z,18.00
2019-05-02T00:16:20.323Z,20.00
2019-05-02T00:19:09.201Z,19.87
2019-05-02T00:21:53.820Z,20.07
2019-05-02T00:24:41.049Z,19.80
2019-05-02T00:27:27.608Z,21.03
2019-05-02T00:30:14.760Z,21.10
2019-05-02T00:33:00.543Z,20.70
2019-05-02T00:35:47.612Z,19.53
2019-05-02T00:38:38.294Z,20.53
2019-05-02T00:41:20.884Z,18.90
2019-05-02T00:44:11.099Z,20.47
2019-05-02T00:46:56.900Z,19.83
2019-05-02T00:49:42.291Z,20.83
2019-05-02T00:52:32.859Z,20.10
2019-05-02T00:55:16.326Z,22.33
2019-05-02T00:58:02.623Z,21.97
2019-05-02T01:01:29.600Z,21.83
2019-05-02T01:04:27.544Z,21.63
2019-05-02T01:07:12.223Z,22.80
2019-05-02T01:09:57.905Z,23.63
2019-05-02T01:12:46.099Z,22.43
2019-05-02T01:15:32.484Z,23.83
2019-05-02T01:18:21.308Z,22.97
2019-05-02T01:21:07.516Z,20.83
2019-05-02T01:23:53.056Z,22.20
2019-05-02T01:26:42.977Z,22.73
2019-05-02T01:29:35.135Z,20.87
2019-05-02T01:32:43.185Z,23.03
2019-05-02T01:35:44.288Z,23.87
2019-05-02T01:38:38.900Z,23.67
2019-05-02T01:41:29.108Z,23.20
2019-05-02T01:44:12.740Z,23.87
2019-05-02T01:47:00.058Z,23.47
2019-05-02T01:49:45.836Z,24.37
2019-05-02T01:52:31.269Z,22.63
2019-05-02T01:55:21.177Z,22.87
2019-05-02T01:58:05.723Z,23.33
2019-05-02T02:00:51.217Z,24.80
2019-05-02T02:03:40.485Z,24.00
2019-05-02T02:06:25.041Z,24.03
2019-05-02T02:09:10.620Z,23.23
2019-05-02T02:11:56.420Z,24.73
2019-05-02T02:14:42.053Z,25.17
2019-05-02T02:17:27.685Z,24.33
2019-05-02T02:20:15.824Z,23.53
2019-05-02T02:23:21.011Z,23.33
2019-05-02T02:26:11.893Z,24.00
2019-05-02T02:28:56.717Z,21.13
2019-05-02T02:31:46.947Z,22.27
2019-05-02T02:34:32.474Z,23.33
2019-05-02T02:37:17.505Z,23.70
2019-05-02T02:40:04.484Z,23.13
2019-05-02T02:42:50.344Z,22.17
2019-05-02T02:45:51.814Z,22.20
2019-05-02T02:48:40.621Z,22.93
2019-05-02T02:51:26.597Z,22.63
2019-05-02T02:54:12.550Z,23.20
2019-05-02T02:56:58.342Z,24.40
2019-05-02T02:59:45.166Z,24.00
2019-05-02T03:02:31.557Z,25.07
2019-05-02T03:05:18.779Z,26.57
2019-05-02T03:08:06.914Z,25.23
2019-05-02T03:10:53.126Z,23.57
2019-05-02T03:13:53.426Z,23.17
2019-05-02T03:16:46.157Z,23.87
2019-05-02T03:19:25.341Z,27.03
2019-05-02T03:22:11.353Z,22.53
2019-05-02T03:24:57.102Z,25.43
2019-05-02T03:27:42.597Z,25.77
2019-05-02T03:30:35.376Z,24.77
2019-05-02T03:33:15.811Z,23.80
2019-05-02T03:36:01.433Z,24.93
2019-05-02T03:38:49.247Z,25.83
2019-05-02T03:41:34.652Z,24.87
2019-05-02T03:44:25.936Z,24.37
2019-05-02T03:47:08.150Z,23.47
2019-05-02T03:49:54.350Z,26.50
2019-05-02T03:52:46.194Z,27.40
2019-05-02T03:55:33.730Z,26.97
2019-05-02T03:58:18.192Z,26.43
2019-05-02T04:01:04.107Z,25.47
2019-05-02T04:03:50.377Z,25.97
2019-05-02T04:06:36.642Z,27.17
2019-05-02T04:09:39.236Z,25.93
2019-05-02T04:12:23.733Z,26.90
2019-05-02T04:15:10.133Z,25.73
2019-05-02T04:17:56.527Z,25.97
2019-05-02T04:20:43.570Z,24.97
2019-05-02T04:23:30.221Z,24.17
2019-05-02T04:26:17.375Z,26.53
2019-05-02T04:29:03.989Z,26.23
2019-05-02T04:31:49.870Z,27.83
2019-05-02T04:34:35.360Z,28.17
2019-05-02T04:37:21.260Z,27.03
2019-05-02T04:40:11.405Z,27.43
2019-05-02T04:43:02.156Z,26.37
2019-05-02T04:45:53.164Z,26.70
2019-05-02T04:48:34.746Z,26.20
2019-05-02T04:51:20.285Z,26.57
2019-05-02T04:54:05.230Z,28.03
2019-05-02T04:56:55.488Z,25.80
2019-05-02T04:59:41.382Z,26.33
2019-05-02T05:02:34.193Z,24.50
2019-05-02T05:05:17.198Z,27.33
2019-05-02T05:08:02.149Z,25.80
2019-05-02T05:10:48.008Z,25.43
2019-05-02T05:13:33.654Z,24.13
2019-05-02T05:16:20.185Z,25.17
2019-05-02T05:19:07.624Z,24.90
2019-05-02T05:21:58.831Z,24.07
2019-05-02T05:24:48.378Z,24.70
2019-05-02T05:27:34.286Z,24.73
2019-05-02T05:30:19.702Z,26.40
2019-05-02T05:33:07.594Z,25.40
2019-05-02T05:35:52.904Z,23.33
2019-05-02T05:38:40.639Z,23.80
2019-05-02T05:41:27.791Z,26.63
2019-05-02T05:44:13.714Z,23.03
2019-05-02T05:46:59.306Z,23.93
2019-05-02T05:49:44.890Z,24.20
2019-05-02T05:52:33.006Z,26.20
2019-05-02T05:55:24.078Z,25.00
2019-05-02T05:58:15.281Z,24.17
2019-05-02T06:00:56.522Z,23.13
2019-05-02T06:03:44.981Z,23.33
2019-05-02T06:06:31.822Z,22.50
2019-05-02T06:09:17.583Z,23.13
2019-05-02T06:12:05.574Z,24.20
2019-05-02T06:14:51.015Z,23.47
2019-05-02T06:17:36.494Z,22.80
2019-05-02T06:20:25.750Z,23.23
2019-05-02T06:23:09.661Z,22.47
2019-05-02T06:25:55.583Z,24.37
2019-05-02T06:28:41.857Z,22.83
2019-05-02T06:31:38.216Z,23.87
2019-05-02T06:34:32.437Z,22.37
2019-05-02T06:37:18.430Z,23.27
2019-05-02T06:40:08.019Z,24.20
2019-05-02T06:42:52.598Z,24.13
2019-05-02T06:45:39.673Z,24.50
2019-05-02T06:48:25.843Z,25.53
2019-05-02T06:51:19.579Z,25.10
2019-05-02T06:53:58.879Z,24.30
2019-05-02T06:56:47.856Z,26.07
2019-05-02T06:59:34.255Z,25.07
2019-05-02T07:02:19.634Z,25.57
2019-05-02T07:05:06.935Z,24.77
2019-05-02T07:07:52.998Z,23.87
2019-05-02T07:10:44.785Z,25.27
2019-05-02T07:13:29.135Z,26.10
2019-05-02T07:16:38.865Z,25.90
2019-05-02T07:19:34.256Z,25.03
2019-05-02T07:22:21.579Z,26.40
2019-05-02T07:25:12.251Z,26.50
2019-05-02T07:28:04.642Z,26.40
2019-05-02T07:30:50.505Z,25.40
2019-05-02T07:33:37.430Z,26.10
2019-05-02T07:36:25.515Z,25.77
2019-05-02T07:39:11.718Z,25.40
2019-05-02T07:42:00.638Z,24.83
2019-05-02T07:44:46.480Z,24.67
2019-05-02T07:47:34.713Z,25.27
2019-05-02T07:50:20.345Z,26.57
2019-05-02T07:53:09.577Z,25.43
2019-05-02T07:55:55.876Z,25.57
2019-05-02T07:58:46.949Z,26.17
2019-05-02T08:01:29.114Z,27.13
2019-05-02T08:04:15.233Z,25.70
2019-05-02T08:07:01.564Z,27.47
2019-05-02T08:09:47.230Z,26.63
2019-05-02T08:12:33.224Z,25.97
2019-05-02T08:15:18.745Z,28.10
2019-05-02T08:18:04.716Z,29.10
2019-05-02T08:20:51.065Z,27.63
2019-05-02T08:23:38.400Z,26.33
2019-05-02T08:26:23.951Z,26.77
2019-05-02T08:29:10.716Z,26.40
2019-05-02T08:31:56.447Z,27.17
2019-05-02T08:34:46.133Z,26.37
2019-05-02T08:37:30.430Z,27.13
2019-05-02T08:40:15.925Z,24.47
2019-05-02T08:43:03.558Z,26.37
2019-05-02T08:45:49.870Z,25.17
2019-05-02T08:48:41.720Z,26.27
2019-05-02T08:51:24.437Z,27.03
2019-05-02T08:54:10.194Z,27.43
2019-05-02T08:56:58.963Z,24.57
2019-05-02T08:59:43.404Z,25.70
2019-05-02T09:02:40.871Z,23.07
2019-05-02T09:05:17.121Z,24.53
2019-05-02T09:08:03.297Z,23.40
2019-05-02T09:10:51.502Z,23.17
2019-05-02T09:13:37.198Z,24.87
2019-05-02T09:16:28.682Z,25.27
2019-05-02T09:19:13.515Z,23.93
2019-05-02T09:21:59.809Z,22.93
2019-05-02T09:24:45.641Z,23.83
2019-05-02T09:27:31.873Z,22.30
2019-05-02T09:30:22.851Z,23.13
2019-05-02T09:33:06.775Z,23.40
2019-05-02T09:35:52.928Z,24.13
2019-05-02T09:38:39.932Z,24.77
2019-05-02T09:41:26.933Z,23.23
2019-05-02T09:44:18.470Z,24.37
2019-05-02T09:47:02.369Z,24.73
2019-05-02T09:49:52.537Z,24.57
2019-05-02T09:52:39.459Z,24.00
2019-05-02T09:55:25.848Z,25.30
2019-05-02T09:58:18.925Z,25.50
2019-05-02T10:01:07.672Z,24.50
2019-05-02T10:03:53.163Z,25.00
2019-05-02T10:06:39.276Z,24.93
2019-05-02T10:09:27.182Z,24.87
2019-05-02T10:12:13.306Z,26.57
2019-05-02T10:14:58.967Z,25.00
2019-05-02T10:17:46.744Z,24.53
2019-05-02T10:20:36.184Z,24.47
2019-05-02T10:23:21.435Z,22.53
2019-05-02T10:26:12.891Z,22.37
2019-05-02T10:28:56.945Z,24.10
2019-05-02T10:31:43.030Z,25.47
2019-05-02T10:34:29.261Z,24.37
2019-05-02T10:37:16.516Z,22.50
2019-05-02T10:40:07.814Z,23.03
2019-05-02T10:42:53.020Z,22.60
2019-05-02T10:45:42.468Z,22.10
2019-05-02T10:48:28.881Z,22.57
2019-05-02T10:51:34.383Z,22.50
2019-05-02T10:54:22.880Z,18.10
2019-05-02T10:57:08.168Z,19.27
2019-05-02T10:59:56.134Z,16.90
2019-05-02T11:03:03.873Z,16.73
2019-05-02T11:05:58.053Z,18.60
2019-05-02T11:08:45.816Z,17.37
2019-05-02T11:11:29.391Z,16.47
2019-05-02T11:14:22.570Z,17.13
2019-05-02T11:17:28.556Z,17.57
2019-05-02T11:20:14.799Z,18.83
2019-05-02T11:23:02.197Z,16.47
2019-05-02T11:25:48.583Z,17.50
2019-05-02T11:28:34.771Z,16.33
2019-05-02T11:31:21.821Z,17.73
2019-05-02T11:34:08.095Z,17.63
2019-05-02T11:36:53.853Z,18.43
2019-05-02T11:39:46.381Z,19.60
2019-05-02T11:42:27.455Z,19.00
2019-05-02T11:45:13.482Z,19.93
2019-05-02T11:48:03.376Z,15.53
2019-05-02T11:50:47.322Z,14.43
2019-05-02T11:53:33.419Z,16.50
2019-05-02T11:56:22.051Z,16.30
2019-05-02T11:59:07.376Z,17.40
2019-05-02T12:02:31.977Z,17.03
2019-05-02T12:05:22.088Z,16.67
2019-05-02T12:08:09.494Z,16.83
2019-05-02T12:10:55.382Z,18.33
2019-05-02T12:13:42.748Z,17.57
2019-05-02T12:16:28.627Z,17.40
2019-05-02T12:19:14.968Z,18.40
2019-05-02T12:22:02.658Z,17.47
2019-05-02T12:24:48.065Z,14.07
2019-05-02T12:27:34.059Z,14.63
2019-05-02T12:30:19.740Z,16.00
2019-05-02T12:33:05.948Z,16.17
2019-05-02T12:35:53.099Z,15.17
2019-05-02T12:38:39.107Z,15.77
2019-05-02T12:41:25.421Z,12.67
2019-05-02T12:44:12.571Z,12.93
2019-05-02T12:46:58.594Z,14.43
2019-05-02T12:49:44.348Z,14.50
2019-05-02T12:52:31.957Z,14.57
2019-05-02T12:55:17.895Z,14.27
2019-05-02T12:58:03.678Z,13.97
2019-05-02T13:00:50.064Z,13.03
2019-05-02T13:03:41.002Z,13.13
2019-05-02T13:06:27.293Z,14.03
2019-05-02T13:09:13.245Z,14.27
2019-05-02T13:12:06.639Z,14.50
2019-05-02T13:14:52.916Z,15.03
2019-05-02T13:17:43.868Z,13.93
2019-05-02T13:20:29.456Z,13.90
2019-05-02T13:23:47.387Z,13.87
2019-05-02T13:26:33.630Z,15.70
2019-05-02T13:29:19.296Z,14.50
2019-05-02T13:32:21.805Z,13.90
2019-05-02T13:35:34.467Z,15.50
2019-05-02T13:38:22.418Z,15.60
2019-05-02T13:41:09.179Z,15.43
2019-05-02T13:43:54.912Z,15.37
2019-05-02T13:46:53.481Z,15.93
2019-05-02T13:50:03.987Z,15.30
2019-05-02T13:52:57.676Z,15.30
2019-05-02T13:55:45.620Z,14.80
2019-05-02T13:58:33.886Z,15.77
2019-05-02T14:01:22.530Z,15.93
2019-05-02T14:04:10.396Z,16.17
2019-05-02T14:06:56.029Z,17.50
2019-05-02T14:09:58.323Z,15.10
2019-05-02T14:12:45.027Z,15.17
2019-05-02T14:15:36.176Z,15.93
2019-05-02T14:18:29.047Z,15.37
2019-05-02T14:21:12.624Z,16.60
2019-05-02T14:24:01.578Z,15.97
2019-05-02T14:26:47.372Z,16.70
2019-05-02T14:29:33.203Z,16.47
2019-05-02T14:32:23.714Z,17.03
2019-05-02T14:35:28.366Z,18.20
2019-05-02T14:38:15.138Z,21.43
2019-05-02T14:41:08.375Z,26.57
2019-05-02T14:43:55.373Z,27.37
2019-05-02T14:46:42.550Z,28.43
2019-05-02T14:49:29.049Z,29.13
2019-05-02T14:52:16.404Z,29.63
2019-05-02T14:55:04.075Z,27.87
2019-05-02T14:57:49.510Z,31.10
2019-05-02T15:00:43.219Z,28.20
2019-05-02T15:03:28.527Z,30.00
2019-05-02T15:06:15.026Z,28.27
2019-05-02T15:09:02.416Z,30.43
2019-05-02T15:11:57.262Z,27.67
2019-05-02T15:14:43.268Z,32.37
2019-05-02T15:17:36.258Z,28.63
2019-05-02T15:20:17.448Z,25.13
2019-05-02T15:23:07.128Z,26.30
2019-05-02T15:25:52.471Z,24.90
2019-05-02T15:28:39.348Z,28.23
2019-05-02T15:31:32.406Z,27.97
2019-05-02T15:34:25.242Z,29.43
2019-05-02T15:37:12.384Z,29.10
2019-05-02T15:42:47.402Z,33.20
2019-05-02T15:45:36.658Z,32.40
2019-05-02T15:48:27.514Z,34.00
2019-05-02T15:51:12.838Z,34.23
2019-05-02T15:54:08.192Z,32.60
2019-05-02T15:56:54.121Z,34.30
2019-05-02T15:59:45.074Z,32.83
2019-05-02T16:02:27.533Z,35.20
2019-05-02T16:05:13.510Z,36.73
2019-05-02T16:08:08.262Z,35.50
2019-05-02T16:10:48.148Z,39.00
2019-05-02T16:13:33.882Z,43.73
2019-05-02T16:16:21.923Z,43.33
2019-05-02T16:19:08.205Z,46.07
2019-05-02T16:22:16.834Z,44.83
2019-05-02T16:25:03.110Z,42.60
2019-05-02T16:27:48.889Z,43.33
2019-05-02T16:30:37.008Z,44.53
2019-05-02T16:33:24.106Z,43.67
2019-05-02T16:36:09.801Z,43.23
2019-05-02T16:38:56.400Z,45.50
2019-05-02T16:41:49.197Z,42.50
2019-05-02T16:44:30.082Z,44.73
2019-05-02T16:47:16.424Z,43.97
2019-05-02T16:50:07.250Z,41.30
2019-05-02T16:52:53.433Z,43.73
2019-05-02T16:55:46.038Z,39.23
2019-05-02T16:58:33.655Z,40.93
2019-05-02T17:01:24.626Z,41.33
2019-05-02T17:04:07.652Z,39.87
2019-05-02T17:06:56.849Z,43.17
2019-05-02T17:09:56.630Z,42.83
2019-05-02T17:12:47.020Z,40.90
2019-05-02T17:15:35.454Z,41.17
2019-05-02T17:18:22.807Z,42.93
2019-05-02T17:21:09.249Z,41.30
2019-05-02T17:23:57.999Z,37.97
2019-05-02T17:26:43.951Z,36.00
2019-05-02T17:29:31.789Z,33.80
2019-05-02T17:32:18.804Z,31.97
2019-05-02T17:35:09.746Z,34.13
2019-05-02T17:37:52.736Z,36.73
2019-05-02T17:40:38.671Z,39.63
2019-05-02T17:43:24.834Z,40.27
2019-05-02T17:46:12.544Z,43.77
2019-05-02T17:48:58.034Z,42.53
2019-05-02T17:52:05.732Z,45.53
2019-05-02T17:54:50.215Z,38.17
2019-05-02T17:57:35.834Z,39.83
2019-05-02T18:00:24.030Z,38.93
2019-05-02T18:03:09.789Z,36.40
2019-05-02T18:05:55.774Z,38.87
2019-05-02T18:08:46.269Z,37.80
2019-05-02T18:11:36.023Z,36.63
2019-05-02T18:14:21.181Z,34.00
2019-05-02T18:17:05.344Z,36.93
2019-05-02T18:19:52.086Z,35.67
2019-05-02T18:22:40.022Z,37.30
2019-05-02T18:25:26.050Z,34.47
2019-05-02T18:28:14.070Z,35.67
2019-05-02T18:31:04.519Z,35.53
2019-05-02T18:33:48.703Z,35.77
2019-05-02T18:36:34.895Z,33.50
2019-05-02T18:39:22.186Z,34.83
2019-05-02T18:42:08.314Z,34.63
2019-05-02T18:44:54.593Z,34.17
2019-05-02T18:47:41.792Z,33.83
2019-05-02T18:50:31.972Z,34.13
2019-05-02T18:53:18.617Z,32.13
2019-05-02T18:56:05.868Z,31.50
2019-05-02T18:58:54.142Z,33.90
2019-05-02T19:01:40.280Z,32.27
2019-05-02T19:04:34.993Z,31.50
2019-05-02T19:07:15.851Z,33.40
2019-05-02T19:10:05.798Z,32.67
2019-05-02T19:12:49.704Z,30.13
2019-05-02T19:15:39.726Z,29.17
2019-05-02T19:18:23.063Z,26.73
2019-05-02T19:21:08.963Z,23.33
2019-05-02T19:23:55.088Z,24.30
2019-05-02T19:26:49.041Z,27.30
2019-05-02T19:29:31.855Z,27.90
2019-05-02T19:32:26.963Z,27.37
2019-05-02T19:35:07.019Z,29.87
2019-05-02T19:37:55.069Z,29.47
2019-05-02T19:40:42.777Z,28.30
2019-05-02T19:43:28.806Z,29.40
2019-05-02T19:46:16.858Z,28.30
2019-05-02T19:49:06.891Z,27.30
2019-05-02T19:51:56.640Z,26.40
2019-05-02T19:54:41.018Z,27.67
2019-05-02T19:57:27.015Z,25.60
2019-05-02T20:00:14.802Z,26.60
2019-05-02T20:03:01.778Z,26.20
2019-05-02T20:05:48.735Z,26.30
2019-05-02T20:08:35.809Z,24.03
2019-05-02T20:11:22.456Z,22.47
2019-05-02T20:14:09.662Z,23.27
2019-05-02T20:16:57.398Z,22.87
2019-05-02T20:19:45.151Z,22.13
2019-05-02T20:22:31.756Z,22.93
2019-05-02T20:25:18.352Z,23.70
2019-05-02T20:28:04.876Z,23.70
2019-05-02T20:30:52.630Z,23.03
2019-05-02T20:33:38.904Z,20.03
2019-05-02T20:36:24.742Z,20.00
2019-05-02T20:39:11.985Z,22.60
2019-05-02T20:41:57.990Z,21.47
2019-05-02T20:44:43.724Z,19.67
2019-05-02T20:47:30.136Z,21.00
2019-05-02T20:50:16.692Z,21.10
2019-05-02T20:53:02.676Z,21.00
2019-05-02T20:55:49.129Z,20.67
2019-05-02T20:58:35.729Z,21.70
2019-05-02T21:01:21.844Z,20.87
2019-05-02T21:04:08.343Z,20.67
2019-05-02T21:07:26.290Z,20.43
2019-05-02T21:10:21.583Z,19.20
2019-05-02T21:13:07.408Z,18.50
2019-05-02T21:15:53.772Z,15.00
2019-05-02T21:18:42.196Z,13.40
2019-05-02T21:21:28.275Z,11.00
2019-05-02T21:24:13.900Z,8.90
2019-05-02T21:27:01.852Z,6.83
2019-05-02T21:29:48.308Z,6.07
2019-05-02T21:32:34.397Z,7.30
2019-05-02T21:35:22.362Z,8.47
2019-05-02T21:38:08.103Z,8.37
2019-05-02T21:40:53.859Z,8.40
2019-05-02T21:43:42.282Z,9.33
2019-05-02T21:46:28.148Z,8.93
2019-05-02T21:49:16.455Z,9.37
2019-05-02T21:52:15.153Z,8.30
2019-05-02T21:55:12.459Z,10.13
2019-05-02T21:57:58.481Z,9.60
2019-05-02T22:00:54.765Z,10.37
2019-05-02T22:03:41.002Z,8.73
2019-05-02T22:06:27.103Z,8.70
2019-05-02T22:09:13.962Z,10.07
2019-05-02T22:11:59.489Z,10.37
2019-05-02T22:14:45.006Z,10.93
2019-05-02T22:17:32.202Z,10.10
2019-05-02T22:20:18.601Z,10.20
2019-05-02T22:23:04.604Z,10.83
2019-05-02T22:25:52.629Z,8.70
2019-05-02T22:28:40.040Z,8.90
2019-05-02T22:31:25.649Z,8.10
2019-05-02T22:34:12.985Z,6.43
2019-05-02T22:37:01.843Z,6.97
2019-05-02T22:39:55.804Z,6.87
2019-05-02T22:42:42.021Z,6.00
2019-05-02T22:45:27.927Z,5.90
2019-05-02T22:48:14.593Z,5.17
2019-05-02T22:51:00.229Z,5.17
2019-05-02T22:53:46.524Z,5.03
2019-05-02T22:56:33.957Z,4.13
2019-05-02T22:59:23.527Z,4.50
2019-05-02T23:02:07.997Z,4.10
2019-05-02T23:04:55.323Z,4.70
2019-05-02T23:07:41.908Z,4.70
2019-05-02T23:10:28.340Z,4.03
2019-05-02T23:13:15.229Z,4.03
2019-05-02T23:16:02.912Z,3.57
2019-05-02T23:18:48.680Z,2.63
2019-05-02T23:21:35.177Z,3.23
2019-05-02T23:24:38.701Z,2.87
2019-05-02T23:27:28.979Z,3.70
2019-05-02T23:30:19.160Z,4.17
2019-05-02T23:33:05.062Z,3.77
2019-05-02T23:35:52.161Z,3.93
2019-05-02T23:38:38.462Z,4.10
2019-05-02T23:41:25.286Z,3.37
2019-05-02T23:44:12.228Z,3.40
2019-05-02T23:46:58.911Z,3.90
2019-05-02T23:49:45.149Z,3.97
2019-05-02T23:52:31.807Z,3.80
2019-05-02T23:55:17.501Z,4.40
2019-05-02T23:58:03.199Z,3.87
